»·PEaware :: SWA251 KSAN-KSMF

SWA251 :: KSAN-KSMF

FLIGHT INFORMATION

Flight Status: Arrived
Operator:
Southwest Airlines
More flights by this operator :: More flights under this callsign
Pilot: Javier C. (14203)
Aircraft: BOEING 737-800
(B738)
More flights by this aircraft type
Origin: KSAN San Diego Intl-Lindbergh
United States
Destination: KSMF Sacramento Intl
United States
More flights between these airports :: More routes between these airports
Route: PADRZ2 EHF NURAY SUUTR2
File this flight plan on PilotEdge
Remarks:
Altitude:
(Current/Filed)
36,000ft
Speed:
(Current/Filed)
514kts
Departed: 01-Aug-20 11:13 AM
Arrived: 01-Aug-20 12:32 PM
Distance/Time
Traveled:
417nm/1:19
Distance/Time
To Go:
Arrived

Flight Plot

Page will automatically refresh every two minutes.


Map Options




Map Legend


Flown Route
Filed Route
Departure Airport
Arrival Airport
Navaid (VOR, NDB)
Fix

Horizontal Profiles

Position Reports

Time Latitude Longitude Heading Altitude Ground
Speed
01-Aug-20 10:36 32.731562 -117.195532 259 23ft 0kts
01-Aug-20 10:37 32.731562 -117.195532 259 23ft 0kts
01-Aug-20 10:38 32.731562 -117.195532 259 23ft 0kts
01-Aug-20 10:39 32.731562 -117.195532 259 23ft 0kts
01-Aug-20 10:40 32.731562 -117.195532 259 23ft 0kts
01-Aug-20 10:41 32.731562 -117.195532 259 23ft 0kts
01-Aug-20 10:42 32.731562 -117.195532 259 23ft 0kts
01-Aug-20 10:43 32.731562 -117.195532 259 23ft 0kts
01-Aug-20 10:44 32.731562 -117.195532 259 23ft 0kts
01-Aug-20 10:45 32.731562 -117.195532 259 23ft 0kts
01-Aug-20 10:46 32.731562 -117.195532 259 23ft 0kts
01-Aug-20 10:47 32.731562 -117.195532 259 23ft 0kts
01-Aug-20 10:48 32.731562 -117.195532 259 23ft 0kts
01-Aug-20 10:49 32.731562 -117.195532 259 23ft 0kts
01-Aug-20 10:50 32.731587 -117.195365 259 23ft 1kts
01-Aug-20 10:51 32.731478 -117.195092 24 22ft 1kts
01-Aug-20 10:52 32.731427 -117.195116 16 22ft 0kts
01-Aug-20 10:53 32.731427 -117.195116 16 22ft 0kts
01-Aug-20 10:54 32.731427 -117.195116 16 22ft 0kts
01-Aug-20 10:55 32.731427 -117.195116 16 22ft 0kts
01-Aug-20 10:56 32.732438 -117.194718 26 22ft 10kts
01-Aug-20 10:57 32.733210 -117.192511 105 22ft 14kts
01-Aug-20 10:58 32.732146 -117.188146 106 21ft 16kts
01-Aug-20 10:59 32.731192 -117.184150 103 19ft 11kts
01-Aug-20 11:00 32.730558 -117.181565 106 19ft 16kts
01-Aug-20 11:01 32.729801 -117.178443 106 21ft 7kts
01-Aug-20 11:02 32.729481 -117.176883 82 21ft 0kts
01-Aug-20 11:03 32.729481 -117.176883 82 21ft 0kts
01-Aug-20 11:04 32.729481 -117.176883 82 21ft 0kts
01-Aug-20 11:05 32.729481 -117.176883 82 21ft 0kts
01-Aug-20 11:06 32.729481 -117.176883 82 21ft 0kts
01-Aug-20 11:07 32.729481 -117.176883 82 21ft 0kts
01-Aug-20 11:08 32.729481 -117.176883 82 21ft 0kts
01-Aug-20 11:09 32.729481 -117.176883 82 21ft 0kts
01-Aug-20 11:10 32.729481 -117.176883 82 21ft 0kts
01-Aug-20 11:11 32.730119 -117.175934 320 23ft 5kts
01-Aug-20 11:12 32.730909 -117.178790 286 21ft 66kts
01-Aug-20 11:13 32.741994 -117.218539 289 1177ft 189kts
01-Aug-20 11:14 32.772289 -117.275318 305 2545ft 266kts
01-Aug-20 11:15 32.816187 -117.344188 305 5964ft 275kts
01-Aug-20 11:16 32.869177 -117.426282 305 9582ft 286kts
01-Aug-20 11:17 32.920416 -117.505928 305 12061ft 320kts
01-Aug-20 11:18 32.975695 -117.592049 305 14843ft 332kts
01-Aug-20 11:19 33.032459 -117.680708 304 14956ft 335kts
01-Aug-20 11:20 33.095159 -117.762438 317 14957ft 335kts
01-Aug-20 11:21 33.154778 -117.822275 316 16008ft 338kts
01-Aug-20 11:22 33.232938 -117.900186 317 18777ft 354kts
01-Aug-20 11:23 33.312129 -117.977338 318 21264ft 369kts
01-Aug-20 11:24 33.391448 -118.054940 318 23510ft 382kts
01-Aug-20 11:25 33.474909 -118.136821 318 25593ft 394kts
01-Aug-20 11:26 33.560829 -118.221334 318 27494ft 406kts
01-Aug-20 11:27 33.659845 -118.282825 333 29178ft 420kts
01-Aug-20 11:28 33.731730 -118.322121 333 30602ft 417kts
01-Aug-20 11:29 33.800910 -118.358530 335 31842ft 415kts
01-Aug-20 11:30 33.886509 -118.401421 335 33207ft 412kts
01-Aug-20 11:31 33.976369 -118.446812 335 34467ft 409kts
01-Aug-20 11:32 34.069003 -118.470652 351 35519ft 411kts
01-Aug-20 11:33 34.179476 -118.487096 351 35993ft 421kts
01-Aug-20 11:34 34.279675 -118.502466 351 36000ft 438kts
01-Aug-20 11:35 34.398747 -118.520830 351 36031ft 454kts
01-Aug-20 11:36 34.531330 -118.541344 351 36037ft 453kts
01-Aug-20 11:37 34.677470 -118.564043 351 36058ft 453kts
01-Aug-20 11:38 34.822828 -118.586702 351 36167ft 453kts
01-Aug-20 11:39 34.970459 -118.609766 349 36235ft 452kts
01-Aug-20 11:41 35.092636 -118.698641 316 36218ft 427kts
01-Aug-20 11:42 35.181604 -118.788666 316 36106ft 427kts
01-Aug-20 11:43 35.272850 -118.881635 316 36055ft 429kts
01-Aug-20 11:44 35.364704 -118.975230 316 36055ft 431kts
01-Aug-20 11:45 35.457126 -119.069336 316 36054ft 434kts
01-Aug-20 11:46 35.563525 -119.140297 331 36059ft 443kts
01-Aug-20 11:47 35.676252 -119.201190 331 36060ft 443kts
01-Aug-20 11:48 35.788971 -119.262515 331 36060ft 443kts
01-Aug-20 11:49 35.901434 -119.323756 331 36065ft 443kts
01-Aug-20 11:50 36.014326 -119.385191 331 36064ft 443kts
01-Aug-20 11:51 36.126007 -119.445971 331 36053ft 443kts
01-Aug-20 11:52 36.238697 -119.507288 331 36051ft 443kts
01-Aug-20 11:53 36.351254 -119.568501 332 36050ft 443kts
01-Aug-20 11:54 36.464098 -119.629864 332 36050ft 443kts
01-Aug-20 11:55 36.576891 -119.691189 331 36056ft 443kts
01-Aug-20 11:56 36.680694 -119.767526 322 36058ft 438kts
01-Aug-20 11:57 36.783346 -119.848373 323 36061ft 438kts
01-Aug-20 11:58 36.886168 -119.929329 323 36064ft 438kts
01-Aug-20 11:59 36.986686 -120.008606 323 36034ft 400kts
01-Aug-20 11:59 37.062000 -120.068330 324 36071ft 388kts
01-Aug-20 12:00 37.153105 -120.140674 326 36062ft 397kts
01-Aug-20 12:02 37.262625 -120.227854 326 34151ft 402kts
01-Aug-20 12:02 37.338147 -120.288185 326 32146ft 401kts
01-Aug-20 12:03 37.433841 -120.364864 326 29675ft 412kts
01-Aug-20 12:04 37.526094 -120.449743 320 27195ft 410kts
01-Aug-20 12:05 37.611688 -120.536116 320 24684ft 390kts
01-Aug-20 12:06 37.694656 -120.619321 320 22148ft 370kts
01-Aug-20 12:07 37.772047 -120.697221 320 19348ft 353kts
01-Aug-20 12:08 37.847985 -120.774025 320 17306ft 354kts
01-Aug-20 12:09 37.924585 -120.851686 320 16182ft 350kts
01-Aug-20 12:10 37.999358 -120.927704 320 15071ft 345kts
01-Aug-20 12:11 38.073660 -121.003554 317 13969ft 340kts
01-Aug-20 12:12 38.133810 -121.091325 309 12902ft 330kts
01-Aug-20 12:13 38.189388 -121.173722 308 11881ft 281kts
01-Aug-20 12:14 38.241623 -121.245952 314 10986ft 278kts
01-Aug-20 12:15 38.296062 -121.314403 314 10102ft 273kts
01-Aug-20 12:16 38.349642 -121.382297 314 9230ft 269kts
01-Aug-20 12:17 38.402029 -121.448879 314 8377ft 266kts
01-Aug-20 12:18 38.453832 -121.514868 314 7528ft 263kts
01-Aug-20 12:19 38.507848 -121.575393 321 6697ft 260kts
01-Aug-20 12:20 38.564443 -121.632116 321 5859ft 257kts
01-Aug-20 12:21 38.623049 -121.683124 348 5049ft 259kts
01-Aug-20 12:22 38.690019 -121.692669 359 5007ft 256kts
01-Aug-20 12:23 38.763173 -121.689118 1 4249ft 236kts
01-Aug-20 12:24 38.823550 -121.686126 1 3443ft 198kts
01-Aug-20 12:25 38.869188 -121.664861 69 2867ft 190kts
01-Aug-20 12:26 38.844449 -121.616695 156 2265ft 178kts
01-Aug-20 12:27 38.798258 -121.599772 173 1918ft 166kts
01-Aug-20 12:28 38.767129 -121.600295 181 1193ft 155kts
01-Aug-20 12:29 38.723845 -121.600757 179 399ft 154kts
01-Aug-20 12:30 38.691327 -121.601332 180 30ft 59kts
01-Aug-20 12:31 38.683840 -121.600482 94 30ft 17kts
01-Aug-20 12:32 38.686359 -121.598816 0 30ft 4kts
01-Aug-20 12:33 38.688444 -121.598779 0 30ft 7kts

Navigation Log

Ident Type
Flight plan parsing failed, navigation log unavailable